Time;durP1;ratioP1;P1;durP2;ratioP2;P2;SDS_P1;SDS_P2;PMS_P1;PMS_P2;Temp;Humidity;BMP_temperature;BMP_pressure;BME280_temperature;BME280_humidity;BME280_pressure;Samples;Min_cycle;Max_cycle;Signal;HPM_P1;HPM_P2
2024/02/23 00:01:41;;;;;;;1.75;0.85;;;6.10;96.30;;;;;;5048343;28;20016;-68
2024/02/23 00:04:07;;;;;;;3.15;0.95;;;6.10;96.60;;;;;;5048539;28;20028;-67
2024/02/23 00:06:34;;;;;;;0.90;0.90;;;6.10;96.30;;;;;;5046472;28;20119;-66
2024/02/23 00:09:00;;;;;;;2.03;1.00;;;6.10;96.40;;;;;;5047362;28;20028;-68
2024/02/23 00:11:25;;;;;;;2.83;1.00;;;6.20;96.40;;;;;;5050157;28;20094;-68
2024/02/23 00:13:51;;;;;;;1.77;1.00;;;6.20;96.30;;;;;;5046858;28;20021;-67
2024/02/23 00:16:16;;;;;;;2.13;0.90;;;6.20;96.30;;;;;;5049495;28;21519;-66
2024/02/23 00:18:42;;;;;;;2.80;0.73;;;6.20;96.20;;;;;;5049890;28;20495;-67
2024/02/23 00:21:08;;;;;;;3.00;1.00;;;6.20;96.10;;;;;;5049736;28;20092;-68
2024/02/23 00:23:33;;;;;;;2.10;0.80;;;6.30;96.10;;;;;;5051151;28;20045;-67
2024/02/23 00:25:59;;;;;;;1.17;0.80;;;6.30;96.00;;;;;;5049533;28;20028;-67
2024/02/23 00:28:24;;;;;;;2.45;0.90;;;6.30;95.90;;;;;;5047958;28;20510;-67
2024/02/23 00:30:50;;;;;;;1.50;0.90;;;6.30;95.90;;;;;;5050294;28;20017;-68
2024/02/23 00:33:16;;;;;;;3.45;1.08;;;6.30;95.90;;;;;;5047218;28;20543;-66
2024/02/23 00:35:41;;;;;;;1.08;0.80;;;6.30;95.90;;;;;;5045430;28;20041;-68
2024/02/23 00:38:07;;;;;;;3.72;1.23;;;6.30;96.00;;;;;;5047979;28;20021;-67
2024/02/23 00:40:33;;;;;;;2.25;1.00;;;6.30;96.00;;;;;;5049775;28;20013;-67
2024/02/23 00:43:00;;;;;;;1.63;0.93;;;6.30;96.00;;;;;;5046055;28;20415;-67
2024/02/23 00:45:25;;;;;;;2.22;1.20;;;6.40;96.10;;;;;;5047479;28;20451;-67
2024/02/23 00:47:51;;;;;;;2.15;1.10;;;6.40;96.00;;;;;;5046882;28;20017;-66
2024/02/23 00:50:17;;;;;;;1.65;1.15;;;6.30;96.00;;;;;;5050011;28;20031;-65
2024/02/23 00:52:43;;;;;;;5.32;1.35;;;6.30;96.10;;;;;;5046604;28;20028;-66
2024/02/23 00:55:08;;;;;;;1.63;0.90;;;6.30;96.10;;;;;;5049909;28;20027;-66
2024/02/23 00:57:35;;;;;;;2.08;1.13;;;6.40;96.20;;;;;;5050650;28;20036;-66
2024/02/23 01:00:02;;;;;;;1.30;0.90;;;6.40;96.10;;;;;;5049858;28;20052;-66
2024/02/23 01:02:29;;;;;;;1.65;0.90;;;6.30;96.00;;;;;;5049958;28;20022;-66
2024/02/23 01:04:56;;;;;;;2.45;0.90;;;6.20;96.00;;;;;;5050368;28;20108;-66
2024/02/23 01:07:22;;;;;;;0.65;0.60;;;6.20;96.00;;;;;;5049970;28;20033;-66
2024/02/23 01:09:48;;;;;;;0.73;0.60;;;6.00;96.00;;;;;;5049147;28;20036;-66
2024/02/23 01:12:14;;;;;;;0.60;0.60;;;6.00;96.00;;;;;;5050449;28;20029;-66
2024/02/23 01:14:39;;;;;;;0.98;0.70;;;5.80;96.10;;;;;;5049905;28;20530;-66
2024/02/23 01:17:05;;;;;;;0.90;0.90;;;5.70;96.20;;;;;;5050203;28;20037;-66
2024/02/23 01:19:30;;;;;;;3.05;1.02;;;5.60;96.30;;;;;;5051160;28;20092;-66
2024/02/23 01:21:59;;;;;;;1.20;0.98;;;5.60;96.50;;;;;;5050399;28;20021;-66
2024/02/23 01:24:29;;;;;;;1.73;1.02;;;5.70;96.50;;;;;;5050245;28;20593;-66
2024/02/23 01:26:55;;;;;;;1.88;1.13;;;5.70;96.50;;;;;;5053822;28;20053;-67
2024/02/23 01:29:25;;;;;;;1.40;1.15;;;5.80;96.50;;;;;;5053239;28;20036;-66
2024/02/23 01:31:51;;;;;;;1.05;1.00;;;5.80;96.50;;;;;;5055310;28;20028;-66
2024/02/23 01:34:17;;;;;;;2.95;1.67;;;5.90;96.50;;;;;;5053843;28;20021;-66
2024/02/23 01:36:42;;;;;;;4.55;2.05;;;6.00;96.60;;;;;;5054016;28;20036;-67
2024/02/23 01:39:08;;;;;;;3.35;2.03;;;6.10;96.60;;;;;;5052707;28;20036;-68
2024/02/23 01:41:33;;;;;;;5.55;2.28;;;6.20;96.60;;;;;;5049094;28;20021;-66
2024/02/23 01:43:59;;;;;;;3.30;2.08;;;6.20;96.60;;;;;;5050677;28;20032;-67
2024/02/23 01:46:24;;;;;;;2.15;1.75;;;6.20;96.50;;;;;;5050858;28;20029;-67
2024/02/23 01:48:50;;;;;;;2.20;1.85;;;6.30;96.50;;;;;;5052471;28;20044;-67
2024/02/23 01:51:16;;;;;;;3.58;1.80;;;6.30;96.50;;;;;;5043695;28;20026;-66
2024/02/23 01:53:43;;;;;;;2.88;1.50;;;6.30;96.50;;;;;;5044953;28;20474;-66
2024/02/23 01:56:10;;;;;;;2.25;2.05;;;6.40;96.60;;;;;;5047506;28;20419;-67
2024/02/23 01:58:37;;;;;;;3.83;1.77;;;6.30;96.50;;;;;;5053369;28;20071;-67
2024/02/23 02:01:03;;;;;;;3.60;1.50;;;6.30;96.50;;;;;;5049152;28;20103;-67
2024/02/23 02:03:29;;;;;;;1.92;1.50;;;6.30;96.50;;;;;;5055681;28;20096;-67
2024/02/23 02:05:58;;;;;;;3.33;1.40;;;6.40;96.50;;;;;;5054822;28;20033;-68
2024/02/23 02:08:25;;;;;;;2.63;1.42;;;6.30;96.50;;;;;;5053777;28;20036;-67
2024/02/23 02:10:50;;;;;;;3.95;1.48;;;6.30;96.50;;;;;;5050329;28;20518;-68
2024/02/23 02:13:16;;;;;;;3.55;1.77;;;6.30;96.50;;;;;;5051773;28;20089;-66
2024/02/23 02:15:43;;;;;;;2.95;1.30;;;6.30;96.40;;;;;;5044347;28;20071;-66
2024/02/23 02:18:09;;;;;;;4.95;1.30;;;6.30;96.40;;;;;;5053443;28;20013;-67
2024/02/23 02:20:37;;;;;;;3.38;1.23;;;6.30;96.40;;;;;;5049138;28;20723;-67
2024/02/23 02:23:03;;;;;;;3.25;1.15;;;6.30;96.30;;;;;;5053688;28;20016;-67
2024/02/23 02:25:29;;;;;;;2.90;1.20;;;6.30;96.20;;;;;;5052217;28;20120;-67
2024/02/23 02:27:54;;;;;;;2.25;1.10;;;6.30;96.30;;;;;;5050847;28;20103;-67
2024/02/23 02:30:20;;;;;;;2.78;1.08;;;6.20;96.30;;;;;;5052166;28;20100;-66
2024/02/23 02:32:45;;;;;;;1.75;0.98;;;6.20;96.30;;;;;;5051399;28;20083;-68
2024/02/23 02:35:15;;;;;;;2.58;1.00;;;6.20;96.30;;;;;;5052589;28;20028;-67
2024/02/23 02:37:40;;;;;;;2.60;0.90;;;6.20;96.30;;;;;;5050735;28;20100;-65
2024/02/23 02:40:07;;;;;;;1.77;1.05;;;6.20;96.30;;;;;;5049746;28;20021;-65
2024/02/23 02:42:33;;;;;;;2.67;1.00;;;6.20;96.30;;;;;;5053494;28;20433;-67
2024/02/23 02:44:59;;;;;;;2.10;1.15;;;6.20;96.30;;;;;;5053694;28;20025;-67
2024/02/23 02:47:24;;;;;;;2.60;1.10;;;6.20;96.20;;;;;;5049358;28;20044;-67
2024/02/23 02:49:51;;;;;;;2.55;1.20;;;6.20;96.20;;;;;;5048517;28;20025;-67
2024/02/23 02:52:16;;;;;;;3.05;1.20;;;6.20;96.10;;;;;;5051743;28;20537;-66
2024/02/23 02:54:42;;;;;;;1.60;1.00;;;6.20;96.00;;;;;;5049809;28;20047;-65
2024/02/23 02:57:07;;;;;;;5.78;1.85;;;6.30;96.00;;;;;;5049546;28;20035;-65
2024/02/23 02:59:35;;;;;;;2.00;1.20;;;6.20;95.90;;;;;;5049206;28;20056;-66
2024/02/23 03:02:01;;;;;;;1.67;1.08;;;6.20;95.90;;;;;;5052739;28;20606;-66
2024/02/23 03:04:26;;;;;;;2.25;1.10;;;6.20;95.80;;;;;;5053970;28;20041;-67
2024/02/23 03:06:52;;;;;;;4.78;1.30;;;6.20;95.80;;;;;;5049971;28;20039;-66
2024/02/23 03:09:17;;;;;;;2.28;1.38;;;6.20;95.70;;;;;;5053716;28;20053;-67
2024/02/23 03:11:43;;;;;;;2.50;1.10;;;6.30;95.60;;;;;;5057121;28;20039;-65
2024/02/23 03:14:09;;;;;;;2.00;1.25;;;6.30;95.60;;;;;;5053699;28;20031;-66
2024/02/23 03:16:37;;;;;;;2.20;1.00;;;6.30;95.50;;;;;;5049337;28;20021;-65
2024/02/23 03:19:02;;;;;;;1.85;1.13;;;6.30;95.50;;;;;;5053842;28;20036;-65
2024/02/23 03:21:28;;;;;;;2.05;1.00;;;6.30;95.50;;;;;;5054346;28;20482;-65
2024/02/23 03:23:54;;;;;;;3.92;1.30;;;6.30;95.50;;;;;;5053754;28;20442;-66
2024/02/23 03:26:20;;;;;;;2.67;1.13;;;6.30;95.50;;;;;;5049840;28;20047;-66
2024/02/23 03:28:45;;;;;;;1.73;1.10;;;6.30;95.50;;;;;;5053703;28;20036;-65
2024/02/23 03:31:11;;;;;;;2.95;1.30;;;6.30;95.40;;;;;;5052832;28;20029;-65
2024/02/23 03:33:36;;;;;;;3.53;1.30;;;6.30;95.20;;;;;;5056567;28;20036;-67
2024/02/23 03:36:03;;;;;;;4.57;1.20;;;6.20;95.00;;;;;;5054613;28;20107;-69
2024/02/23 03:38:29;;;;;;;2.05;1.00;;;6.20;94.90;;;;;;5053589;28;20028;-67
2024/02/23 03:40:55;;;;;;;3.75;1.33;;;6.20;94.80;;;;;;5046926;28;20029;-66
2024/02/23 03:43:21;;;;;;;1.45;1.05;;;6.20;94.90;;;;;;5048060;28;20024;-67
2024/02/23 03:45:46;;;;;;;3.90;1.30;;;6.30;94.90;;;;;;5042332;28;20035;-67
2024/02/23 03:48:12;;;;;;;1.63;1.13;;;6.20;94.80;;;;;;5050672;28;20029;-67
2024/02/23 03:50:37;;;;;;;3.00;1.25;;;6.30;94.70;;;;;;5046094;28;20052;-66
2024/02/23 03:53:03;;;;;;;4.35;1.60;;;6.20;94.60;;;;;;5052696;28;20021;-67
2024/02/23 03:55:29;;;;;;;4.40;1.48;;;6.20;94.40;;;;;;5053201;28;20040;-66
2024/02/23 03:57:54;;;;;;;5.18;1.60;;;6.20;94.40;;;;;;5050521;28;20478;-66
2024/02/23 04:00:22;;;;;;;2.47;1.27;;;6.20;94.40;;;;;;5051035;28;20471;-66
2024/02/23 04:02:48;;;;;;;3.83;1.50;;;6.20;94.50;;;;;;5053477;28;20097;-67
2024/02/23 04:05:14;;;;;;;2.97;1.13;;;6.20;94.50;;;;;;5053429;28;20052;-66
2024/02/23 04:07:40;;;;;;;2.55;1.20;;;6.20;94.50;;;;;;5053321;28;20070;-67
2024/02/23 04:10:06;;;;;;;4.68;1.35;;;6.20;94.50;;;;;;5054316;28;20029;-66
2024/02/23 04:12:31;;;;;;;3.83;1.38;;;6.20;94.50;;;;;;5053240;28;20021;-67
2024/02/23 04:14:57;;;;;;;3.17;1.40;;;6.20;94.40;;;;;;5053533;28;20029;-67
2024/02/23 04:17:23;;;;;;;4.47;1.95;;;6.20;94.30;;;;;;5052999;28;20029;-68
2024/02/23 04:19:48;;;;;;;1.30;1.10;;;6.20;94.30;;;;;;5055488;28;20036;-68
2024/02/23 04:22:14;;;;;;;3.22;1.52;;;6.10;94.20;;;;;;5048961;28;20027;-66
2024/02/23 04:24:40;;;;;;;2.15;1.30;;;6.20;94.30;;;;;;5049792;28;20100;-65
2024/02/23 04:27:07;;;;;;;2.97;1.30;;;6.20;94.20;;;;;;5052967;28;20106;-66
2024/02/23 04:29:33;;;;;;;4.75;1.40;;;6.10;94.20;;;;;;5050437;28;20083;-66
2024/02/23 04:32:00;;;;;;;2.72;1.20;;;6.20;94.30;;;;;;5050015;28;20033;-66
2024/02/23 04:34:25;;;;;;;3.75;1.40;;;6.20;94.20;;;;;;5049419;28;20029;-65
2024/02/23 04:36:51;;;;;;;2.55;1.30;;;6.10;94.20;;;;;;5049723;28;20033;-65
2024/02/23 04:39:17;;;;;;;5.00;1.48;;;6.10;94.20;;;;;;5052949;28;20032;-67
2024/02/23 04:41:42;;;;;;;4.80;1.48;;;6.20;94.20;;;;;;5051019;28;20467;-66
2024/02/23 04:44:08;;;;;;;2.78;1.15;;;6.10;94.20;;;;;;5046931;28;20036;-66
2024/02/23 04:46:34;;;;;;;2.45;1.30;;;6.20;94.20;;;;;;5049531;28;20017;-66
2024/02/23 04:49:00;;;;;;;3.15;1.52;;;6.20;94.20;;;;;;5048732;28;20029;-67
2024/02/23 04:51:26;;;;;;;2.28;1.42;;;6.10;94.10;;;;;;5048378;28;20036;-67
2024/02/23 04:53:51;;;;;;;2.97;1.17;;;6.20;94.10;;;;;;5053543;28;20041;-67
2024/02/23 04:56:17;;;;;;;1.45;1.10;;;6.20;94.10;;;;;;5051429;28;20506;-67
2024/02/23 04:58:43;;;;;;;2.67;1.20;;;6.30;94.20;;;;;;5055585;28;20032;-68
2024/02/23 05:01:10;;;;;;;2.05;1.35;;;6.30;94.20;;;;;;5053420;28;20479;-68
2024/02/23 05:03:36;;;;;;;3.42;1.40;;;6.30;94.20;;;;;;5055929;28;20033;-68
2024/02/23 05:06:02;;;;;;;3.65;1.30;;;6.30;94.10;;;;;;5057574;28;20081;-67
2024/02/23 05:08:30;;;;;;;4.03;1.40;;;6.30;94.10;;;;;;5052325;28;20056;-69
2024/02/23 05:10:56;;;;;;;2.97;1.20;;;6.30;94.10;;;;;;5055947;28;20037;-67
2024/02/23 05:13:21;;;;;;;4.03;1.30;;;6.30;94.10;;;;;;5056871;28;20094;-67
2024/02/23 05:15:47;;;;;;;3.97;1.60;;;6.30;94.10;;;;;;5054344;28;20086;-67
2024/02/23 05:18:12;;;;;;;3.20;1.48;;;6.30;94.00;;;;;;5051653;28;20055;-67
2024/02/23 05:20:38;;;;;;;4.97;1.50;;;6.30;94.00;;;;;;5052470;28;20098;-67
2024/02/23 05:23:04;;;;;;;3.20;1.27;;;6.30;93.90;;;;;;5051689;28;20028;-68
2024/02/23 05:25:29;;;;;;;3.70;1.48;;;6.30;93.80;;;;;;5057506;28;20480;-67
2024/02/23 05:27:55;;;;;;;4.30;1.67;;;6.30;93.80;;;;;;5057065;28;20029;-68
2024/02/23 05:30:20;;;;;;;6.03;1.70;;;6.40;93.80;;;;;;5049781;28;20053;-68
2024/02/23 05:32:47;;;;;;;4.18;1.40;;;6.40;93.70;;;;;;5052125;28;20021;-67
2024/02/23 05:35:12;;;;;;;1.48;1.00;;;6.40;93.70;;;;;;5049792;28;20025;-65
2024/02/23 05:37:38;;;;;;;1.95;1.20;;;6.40;93.60;;;;;;5045255;28;20405;-66
2024/02/23 05:40:07;;;;;;;2.92;1.50;;;6.40;93.60;;;;;;5048341;28;20484;-66
2024/02/23 05:42:33;;;;;;;6.07;1.58;;;6.50;93.60;;;;;;5045721;28;20033;-66
2024/02/23 05:44:58;;;;;;;4.53;1.80;;;6.40;93.40;;;;;;5051126;28;20054;-67
2024/02/23 05:47:24;;;;;;;5.95;1.63;;;6.40;93.30;;;;;;5051533;28;20465;-65
2024/02/23 05:49:50;;;;;;;2.15;1.23;;;6.40;93.20;;;;;;5047417;28;20566;-67
2024/02/23 05:52:16;;;;;;;2.40;1.50;;;6.40;93.20;;;;;;5043953;28;20110;-65
2024/02/23 05:54:42;;;;;;;3.25;1.50;;;6.50;93.20;;;;;;5047007;28;20059;-66
2024/02/23 05:57:08;;;;;;;4.15;1.55;;;6.50;93.20;;;;;;5042533;28;20103;-65
2024/02/23 05:59:33;;;;;;;4.40;1.60;;;6.50;93.10;;;;;;5051055;28;20033;-66
2024/02/23 06:01:59;;;;;;;4.32;1.60;;;6.50;93.00;;;;;;5040539;28;20040;-66
2024/02/23 06:04:25;;;;;;;3.17;1.50;;;6.50;92.90;;;;;;5045383;28;20104;-66
2024/02/23 06:06:50;;;;;;;4.28;1.40;;;6.50;92.90;;;;;;5046453;28;20036;-65
2024/02/23 06:09:16;;;;;;;2.53;1.52;;;6.50;92.90;;;;;;5049832;28;20021;-66
2024/02/23 06:11:42;;;;;;;4.72;1.73;;;6.50;92.80;;;;;;5050616;28;20028;-66
2024/02/23 06:14:08;;;;;;;6.03;1.83;;;6.60;92.70;;;;;;5049440;28;20032;-67
2024/02/23 06:16:33;;;;;;;3.35;1.42;;;6.50;92.70;;;;;;5050817;28;20032;-67
2024/02/23 06:18:59;;;;;;;3.83;1.58;;;6.60;92.60;;;;;;5048585;28;20059;-66
2024/02/23 06:21:25;;;;;;;3.50;1.70;;;6.60;92.60;;;;;;5046111;28;20507;-66
2024/02/23 06:23:50;;;;;;;6.35;2.08;;;6.60;92.50;;;;;;5046247;28;20033;-67
2024/02/23 06:26:16;;;;;;;3.72;1.58;;;6.50;92.40;;;;;;5050727;28;20033;-66
2024/02/23 06:28:42;;;;;;;3.60;1.30;;;6.60;92.40;;;;;;5046638;28;20466;-67
2024/02/23 06:31:08;;;;;;;3.67;1.45;;;6.60;92.40;;;;;;5042833;28;20028;-66
2024/02/23 06:33:34;;;;;;;3.60;1.55;;;6.60;92.40;;;;;;5050556;28;20029;-67
2024/02/23 06:36:00;;;;;;;3.65;1.33;;;6.60;92.40;;;;;;5049406;28;20083;-66
2024/02/23 06:38:26;;;;;;;3.00;1.30;;;6.60;92.40;;;;;;5045628;28;20053;-66
2024/02/23 06:40:52;;;;;;;2.40;1.30;;;6.60;92.40;;;;;;5053449;28;20383;-67
2024/02/23 06:43:18;;;;;;;2.08;1.10;;;6.60;92.40;;;;;;5059709;28;20017;-67
2024/02/23 06:45:44;;;;;;;3.80;1.20;;;6.60;92.40;;;;;;5049900;28;20020;-66
2024/02/23 06:48:09;;;;;;;6.75;1.50;;;6.60;92.40;;;;;;5052136;28;20116;-67
2024/02/23 06:50:35;;;;;;;5.18;1.42;;;6.60;92.30;;;;;;5054938;28;20026;-68
2024/02/23 06:53:02;;;;;;;2.72;1.40;;;6.60;92.30;;;;;;5052124;28;20033;-68
2024/02/23 06:55:28;;;;;;;4.55;1.40;;;6.60;92.10;;;;;;5048471;28;20013;-68
2024/02/23 06:57:54;;;;;;;6.38;1.60;;;6.70;92.50;;;;;;5046774;28;20407;-68
2024/02/23 07:00:21;;;;;;;4.20;1.58;;;6.60;92.10;;;;;;5049131;28;20025;-66
2024/02/23 07:02:47;;;;;;;2.13;1.23;;;6.70;92.20;;;;;;5051684;28;20048;-66
2024/02/23 07:05:13;;;;;;;4.90;1.30;;;6.70;92.10;;;;;;5049071;28;20064;-65
2024/02/23 07:07:40;;;;;;;4.00;1.60;;;6.70;92.10;;;;;;5047512;28;20040;-66
2024/02/23 07:10:07;;;;;;;5.63;1.58;;;6.70;91.90;;;;;;5041195;28;20104;-66
2024/02/23 07:12:32;;;;;;;4.35;1.40;;;6.70;91.70;;;;;;5046067;28;20033;-66
2024/02/23 07:14:58;;;;;;;2.30;1.20;;;6.70;91.70;;;;;;5048077;28;20029;-66
2024/02/23 07:17:23;;;;;;;3.28;1.52;;;6.80;91.60;;;;;;5044445;28;20468;-66
2024/02/23 07:19:50;;;;;;;2.95;1.30;;;6.80;91.50;;;;;;5045945;28;20075;-66
2024/02/23 07:22:18;;;;;;;5.00;1.55;;;6.80;91.50;;;;;;5036318;28;20029;-65
2024/02/23 07:24:44;;;;;;;4.45;1.55;;;6.80;91.30;;;;;;5047308;28;20017;-67
2024/02/23 07:27:09;;;;;;;5.53;1.50;;;6.80;91.50;;;;;;5044510;28;20067;-67
2024/02/23 07:29:35;;;;;;;5.13;1.23;;;6.90;91.60;;;;;;5045070;28;20688;-66
2024/02/23 07:32:01;;;;;;;3.42;1.25;;;6.90;91.20;;;;;;5044164;28;20017;-66
2024/02/23 07:34:26;;;;;;;2.08;1.10;;;6.90;91.00;;;;;;5043160;28;20545;-67
2024/02/23 07:36:53;;;;;;;4.00;1.65;;;6.90;90.90;;;;;;5050296;28;20017;-66
2024/02/23 07:39:19;;;;;;;5.43;1.40;;;6.90;90.70;;;;;;5050424;28;20032;-66
2024/02/23 07:41:45;;;;;;;3.97;1.48;;;6.90;90.60;;;;;;5048941;28;20078;-66
2024/02/23 07:44:10;;;;;;;6.88;1.58;;;6.90;90.50;;;;;;5047279;28;20062;-67
2024/02/23 07:46:36;;;;;;;4.60;1.30;;;7.00;90.40;;;;;;5049495;28;20111;-67
2024/02/23 07:49:02;;;;;;;6.35;1.58;;;7.00;90.60;;;;;;5050292;28;20025;-67
2024/02/23 07:51:28;;;;;;;4.90;1.60;;;7.00;90.00;;;;;;5050025;28;20052;-67
2024/02/23 07:53:54;;;;;;;6.63;1.25;;;7.00;89.80;;;;;;5049528;28;20134;-67
2024/02/23 07:56:20;;;;;;;5.88;1.40;;;7.00;89.60;;;;;;5045197;28;20033;-67
2024/02/23 07:58:46;;;;;;;6.93;1.70;;;7.00;88.70;;;;;;5048061;28;20710;-67
2024/02/23 08:01:14;;;;;;;5.78;1.20;;;7.00;88.30;;;;;;5041223;28;20009;-67
2024/02/23 08:03:40;;;;;;;2.35;1.10;;;7.00;88.40;;;;;;5048261;28;20503;-66
2024/02/23 08:06:06;;;;;;;3.15;1.23;;;7.10;88.50;;;;;;5046929;28;20029;-66
2024/02/23 08:08:34;;;;;;;6.10;1.35;;;7.10;88.30;;;;;;5046510;28;20043;-67
2024/02/23 08:11:01;;;;;;;4.75;1.50;;;7.20;88.20;;;;;;5049419;28;20021;-66
2024/02/23 08:13:27;;;;;;;3.65;1.25;;;7.20;87.90;;;;;;5048747;28;20450;-67
2024/02/23 08:15:52;;;;;;;4.68;1.50;;;7.20;87.40;;;;;;5049419;28;20108;-66
2024/02/23 08:18:18;;;;;;;4.40;1.40;;;7.30;87.00;;;;;;5044752;28;20487;-66
2024/02/23 08:20:43;;;;;;;3.90;1.40;;;7.30;86.90;;;;;;5048499;28;20075;-66
2024/02/23 08:23:09;;;;;;;5.80;1.50;;;7.40;86.40;;;;;;5048512;28;20025;-66
2024/02/23 08:25:35;;;;;;;4.20;1.23;;;7.30;85.90;;;;;;5051968;28;20074;-67
2024/02/23 08:28:01;;;;;;;4.70;1.33;;;7.30;86.10;;;;;;5047288;28;20039;-67
2024/02/23 08:30:26;;;;;;;3.72;1.30;;;7.30;86.10;;;;;;5048417;28;20033;-67
2024/02/23 08:32:52;;;;;;;4.13;1.30;;;7.40;86.10;;;;;;5048082;28;20464;-66
2024/02/23 08:35:18;;;;;;;3.20;1.30;;;7.40;86.50;;;;;;5046398;28;20104;-66
2024/02/23 08:37:44;;;;;;;7.72;1.60;;;7.40;86.00;;;;;;5046042;28;20082;-67
2024/02/23 08:40:10;;;;;;;5.35;1.40;;;7.40;85.80;;;;;;5048259;28;20017;-67
2024/02/23 08:42:36;;;;;;;5.50;1.70;;;7.40;85.70;;;;;;5048097;28;20094;-67
2024/02/23 08:45:02;;;;;;;4.25;1.85;;;7.40;85.50;;;;;;5045976;28;20032;-67
2024/02/23 08:47:31;;;;;;;3.22;1.02;;;7.40;85.60;;;;;;5047217;28;20450;-67
2024/02/23 08:49:57;;;;;;;7.32;1.70;;;7.50;85.90;;;;;;5051741;28;20044;-67
2024/02/23 08:52:23;;;;;;;2.60;1.25;;;7.50;85.80;;;;;;5048052;28;20399;-67
2024/02/23 08:54:48;;;;;;;5.07;1.38;;;7.60;85.90;;;;;;5048844;28;20404;-66
2024/02/23 08:57:19;;;;;;;4.13;1.20;;;7.70;85.40;;;;;;5047230;28;20543;-66
2024/02/23 08:59:44;;;;;;;3.05;1.10;;;7.80;85.30;;;;;;5046232;28;20021;-66
2024/02/23 09:02:10;;;;;;;4.50;1.13;;;7.90;85.10;;;;;;5048136;28;20384;-67
2024/02/23 09:04:36;;;;;;;2.22;1.23;;;7.90;84.70;;;;;;5048158;28;20025;-66
2024/02/23 09:07:01;;;;;;;3.28;1.23;;;7.80;84.50;;;;;;5045770;28;20125;-67
2024/02/23 09:09:27;;;;;;;4.72;1.40;;;7.90;84.70;;;;;;5047649;28;20041;-67
2024/02/23 09:11:53;;;;;;;2.53;1.50;;;7.90;84.50;;;;;;5048011;28;20029;-67
2024/02/23 09:14:18;;;;;;;3.97;1.05;;;7.80;83.90;;;;;;5048674;28;20033;-66
2024/02/23 09:16:46;;;;;;;2.88;1.13;;;7.80;84.10;;;;;;5047855;28;20419;-67
2024/02/23 09:19:12;;;;;;;3.28;1.30;;;7.80;84.30;;;;;;5048452;28;20025;-67
2024/02/23 09:21:37;;;;;;;5.00;1.30;;;7.80;84.70;;;;;;5044893;28;20373;-67
2024/02/23 09:24:04;;;;;;;5.05;1.30;;;7.80;83.90;;;;;;5049874;28;20078;-67
2024/02/23 09:26:29;;;;;;;3.30;1.30;;;7.80;83.80;;;;;;5048820;28;20036;-66
2024/02/23 09:28:55;;;;;;;4.35;1.50;;;7.80;83.30;;;;;;5047214;28;20029;-66
2024/02/23 09:31:21;;;;;;;4.60;1.60;;;7.80;83.30;;;;;;5046082;28;20232;-66
2024/02/23 09:33:49;;;;;;;2.55;1.10;;;7.80;83.20;;;;;;5048358;28;20111;-67
2024/02/23 09:36:14;;;;;;;5.03;1.30;;;7.80;83.40;;;;;;5048251;28;20036;-66
2024/02/23 09:38:40;;;;;;;4.85;1.45;;;7.80;83.70;;;;;;5047707;28;20025;-69
2024/02/23 09:41:11;;;;;;;3.85;1.17;;;7.80;83.70;;;;;;5048155;28;20021;-66
2024/02/23 09:43:37;;;;;;;4.85;1.50;;;7.80;83.80;;;;;;5042871;28;20025;-67
2024/02/23 09:46:03;;;;;;;3.10;1.20;;;7.80;83.90;;;;;;5049964;28;20024;-67
2024/02/23 09:48:29;;;;;;;4.78;1.35;;;7.90;84.10;;;;;;5051032;28;20570;-67
2024/02/23 09:50:57;;;;;;;2.20;1.08;;;7.90;83.70;;;;;;5051377;28;20040;-67
2024/02/23 09:53:22;;;;;;;3.97;1.48;;;7.90;83.90;;;;;;5051092;28;20021;-67
2024/02/23 09:55:51;;;;;;;4.43;1.58;;;7.90;83.70;;;;;;5050600;28;20044;-67
2024/02/23 09:58:17;;;;;;;5.00;1.50;;;7.90;83.70;;;;;;5049534;28;20028;-67
2024/02/23 10:00:43;;;;;;;4.22;1.42;;;7.90;83.60;;;;;;5044402;28;20025;-67
2024/02/23 10:03:09;;;;;;;4.35;1.30;;;8.00;83.80;;;;;;5050845;28;20040;-67
2024/02/23 10:05:35;;;;;;;4.32;1.55;;;8.00;83.70;;;;;;5051565;28;20035;-67
2024/02/23 10:08:00;;;;;;;3.30;1.10;;;8.00;83.50;;;;;;5050510;28;20021;-68
2024/02/23 10:10:35;;;;;;;5.63;1.30;;;8.10;83.60;;;;;;5055481;28;20032;-67
2024/02/23 10:13:04;;;;;;;3.92;1.40;;;8.10;83.50;;;;;;5047793;28;20021;-68
2024/02/23 10:15:30;;;;;;;2.42;1.10;;;8.10;83.40;;;;;;5051360;28;20075;-67
2024/02/23 10:17:56;;;;;;;4.07;1.33;;;8.10;83.20;;;;;;5046571;28;20104;-67
2024/02/23 10:20:22;;;;;;;4.72;1.40;;;8.10;83.50;;;;;;5051077;28;20140;-68
2024/02/23 10:22:48;;;;;;;3.58;1.33;;;8.10;83.70;;;;;;5051014;28;20029;-66
2024/02/23 10:25:14;;;;;;;4.65;1.20;;;8.00;84.10;;;;;;5051380;28;20025;-67
2024/02/23 10:27:42;;;;;;;4.72;1.42;;;8.00;84.50;;;;;;5049498;28;20399;-69
2024/02/23 10:30:11;;;;;;;3.25;1.42;;;7.90;84.90;;;;;;5049364;28;20472;-66
2024/02/23 10:32:38;;;;;;;5.25;1.17;;;7.90;85.30;;;;;;5048336;28;20033;-66
2024/02/23 10:35:13;;;;;;;1.88;1.00;;;7.90;85.70;;;;;;5039102;28;20043;-67
2024/02/23 10:37:38;;;;;;;5.88;1.23;;;7.80;85.90;;;;;;5049868;28;20025;-67
2024/02/23 10:40:09;;;;;;;5.00;1.30;;;7.80;86.20;;;;;;5050484;28;20020;-66
2024/02/23 10:42:37;;;;;;;4.95;1.27;;;7.70;86.50;;;;;;5033047;28;20033;-66
2024/02/23 10:45:05;;;;;;;2.53;1.10;;;7.70;86.90;;;;;;5050893;28;20460;-66
2024/02/23 10:47:32;;;;;;;3.83;1.30;;;7.70;87.30;;;;;;5046573;28;20040;-65
2024/02/23 10:50:01;;;;;;;1.95;1.25;;;7.70;87.80;;;;;;5048611;28;20633;-65
2024/02/23 10:52:27;;;;;;;2.20;1.20;;;7.70;88.30;;;;;;5049088;28;20036;-66
2024/02/23 10:54:54;;;;;;;3.35;1.30;;;7.80;88.60;;;;;;5048116;28;20036;-66
2024/02/23 10:57:19;;;;;;;4.72;1.35;;;7.80;88.70;;;;;;5049595;28;20021;-65
2024/02/23 10:59:47;;;;;;;2.80;1.27;;;7.80;88.60;;;;;;5049576;28;20028;-67
2024/02/23 11:02:17;;;;;;;2.67;1.10;;;7.90;88.40;;;;;;5045021;28;20017;-69
2024/02/23 11:04:46;;;;;;;3.47;1.23;;;7.90;88.10;;;;;;5049810;28;20048;-66
2024/02/23 11:07:16;;;;;;;2.30;1.00;;;8.00;87.90;;;;;;5047157;28;20029;-67
2024/02/23 11:09:41;;;;;;;4.20;1.20;;;8.00;87.50;;;;;;5049267;28;20728;-67
2024/02/23 11:12:09;;;;;;;4.65;1.52;;;8.00;87.30;;;;;;5049485;28;20033;-67
2024/02/23 11:14:36;;;;;;;2.70;1.00;;;8.00;87.10;;;;;;5049833;28;20031;-67
2024/02/23 11:17:03;;;;;;;3.08;1.10;;;8.00;87.10;;;;;;5049827;28;20032;-67
2024/02/23 11:19:35;;;;;;;2.75;1.30;;;8.00;86.90;;;;;;5049746;28;20017;-67
2024/02/23 11:22:02;;;;;;;3.17;1.10;;;8.00;86.70;;;;;;5043678;28;20490;-68
2024/02/23 11:24:32;;;;;;;3.42;1.10;;;8.00;86.70;;;;;;5050223;28;20108;-67
2024/02/23 11:26:58;;;;;;;2.35;0.90;;;8.10;86.90;;;;;;5048448;28;20052;-68
2024/02/23 11:29:27;;;;;;;2.90;1.02;;;8.00;86.60;;;;;;5047724;28;20131;-67
2024/02/23 11:31:56;;;;;;;2.70;1.10;;;8.10;86.70;;;;;;5049061;28;20029;-66
2024/02/23 11:34:24;;;;;;;4.07;1.20;;;8.10;86.50;;;;;;5049535;28;20032;-67
2024/02/23 11:36:53;;;;;;;1.67;0.90;;;8.10;86.30;;;;;;5048688;28;20025;-67
2024/02/23 11:39:20;;;;;;;3.45;1.20;;;8.10;86.40;;;;;;5049638;28;20036;-66
2024/02/23 11:41:49;;;;;;;2.85;1.13;;;8.20;86.30;;;;;;5049374;28;20032;-67
2024/02/23 11:44:17;;;;;;;3.08;0.98;;;8.20;86.20;;;;;;5050001;28;20021;-67
2024/02/23 11:46:43;;;;;;;2.90;1.02;;;8.20;86.00;;;;;;5043554;28;20025;-67
2024/02/23 11:49:08;;;;;;;2.97;1.25;;;8.20;86.00;;;;;;5049253;28;20104;-67
2024/02/23 11:51:34;;;;;;;4.13;1.13;;;8.30;85.90;;;;;;5049157;28;20582;-67
2024/02/23 11:54:00;;;;;;;3.88;1.13;;;8.30;85.90;;;;;;5049412;28;20029;-67
2024/02/23 11:56:26;;;;;;;1.67;1.08;;;8.30;85.60;;;;;;5048562;28;20067;-67
2024/02/23 11:58:54;;;;;;;4.05;1.17;;;8.40;85.50;;;;;;5049397;28;20036;-67
2024/02/23 12:01:20;;;;;;;1.42;0.90;;;8.40;85.40;;;;;;5047492;28;20037;-67
2024/02/23 12:03:45;;;;;;;2.53;1.40;;;8.40;85.20;;;;;;5043394;28;20584;-67
2024/02/23 12:06:13;;;;;;;2.38;1.10;;;8.40;85.20;;;;;;5045937;28;20478;-66
2024/02/23 12:08:39;;;;;;;2.90;1.30;;;8.50;85.30;;;;;;5048086;28;20029;-67
2024/02/23 12:11:07;;;;;;;3.92;1.30;;;8.40;85.20;;;;;;5048384;28;20859;-67
2024/02/23 12:13:32;;;;;;;4.00;1.10;;;8.50;85.20;;;;;;5049775;28;20028;-68
2024/02/23 12:15:58;;;;;;;2.25;0.88;;;8.40;85.20;;;;;;5047926;28;20029;-67
2024/02/23 12:18:26;;;;;;;3.10;1.10;;;8.50;85.50;;;;;;5049359;28;20078;-67
2024/02/23 12:20:52;;;;;;;4.28;1.05;;;8.50;85.40;;;;;;5045600;28;20043;-67
2024/02/23 12:23:17;;;;;;;3.33;1.20;;;8.50;85.60;;;;;;5046604;28;20125;-67
2024/02/23 12:25:56;;;;;;;2.80;1.30;;;8.50;85.30;;;;;;5043584;28;20462;-67
2024/02/23 12:28:23;;;;;;;2.65;1.10;;;8.50;85.40;;;;;;5045525;28;20013;-66
2024/02/23 12:31:04;;;;;;;5.65;1.40;;;8.50;86.00;;;;;;5046964;28;20024;-67
2024/02/23 12:33:35;;;;;;;3.92;1.20;;;8.40;85.10;;;;;;5048474;28;20041;-66
2024/02/23 12:36:04;;;;;;;1.77;1.02;;;8.50;85.20;;;;;;5048032;28;20023;-67
2024/02/23 12:38:29;;;;;;;3.08;1.10;;;8.50;85.40;;;;;;5047979;28;20013;-67
2024/02/23 12:40:55;;;;;;;3.88;1.20;;;8.60;85.20;;;;;;5048128;28;20315;-67
2024/02/23 12:43:23;;;;;;;2.97;1.20;;;8.60;85.10;;;;;;5048853;28;20521;-67
2024/02/23 12:45:52;;;;;;;2.25;1.20;;;8.70;85.00;;;;;;5043538;28;20123;-67
2024/02/23 12:48:18;;;;;;;1.35;1.10;;;8.70;85.00;;;;;;5046894;28;20025;-66
2024/02/23 12:50:45;;;;;;;2.90;1.30;;;8.80;85.00;;;;;;5049110;28;20110;-67
2024/02/23 12:53:37;;;;;;;1.98;1.05;;;8.70;84.70;;;;;;5049015;28;20025;-67